Pagina principale
METAR-TAF:

METAR-TAF

Aeroporti :

Aeroporto Eppley

Omaha, Nebraska, Stati Uniti

latitudine: 41-18-37N, longitudine: 095-53-57W, altezza: 299 m

Osservazione

Il bollettino è stato emesso 44 minuti fa, alle 00:52 UTC
Vento 11 kt da est/sud-est
Temperature 28°C
Umidità 74%
Pressione 1020 hPa
Visibilità: 16.1 km
Nubi sparse ad un'altezza di 3400 ft
Nubi sparse ad un'altezza di 4600 ft

METAR: KOMA 210052Z 12011KT 10SM SCT034 SCT046 28/23 A3013 RMK AO2 SLP197 CB DSNT SE AND NW T02830228

Ora: 20:36 (01:36 UTC)

Previsione

Il bollettino è stato emesso 2 ore e 9 minuti fa, alle 23:27 UTC
Previsione valida dal 21 alle 00 UTC al 21 alle 24 UTC
Vento 7 kt da sud/sud-est
Visibilità: 10 km
Nubi sparse ad un'altezza di 3000 ft
A partire da 21 alle 1400 UTC
Vento 10 kt da sud con raffiche fino a 20 kt
Visibilità: 10 km
Nubi sparse ad un'altezza di 23000 ft

TAF: KOMA 202327Z 2100/2124 15007KT P6SM SCT030 FM211400 17010G20KT P6SM SCT230

Osservazioni e previsioni meteorologiche di più di 4000 aeroporti (messaggi METAR e TAF).

Le stazioni disponibili sono rappresentate dai dischi gialli e rossi sulla carta.

Puntare il mouse per vedere il nome della stazione.

Clicca sopra per visualizzare le osservazioni e previsioni meteorologiche.

Per cambiare la mappa : fare clic sui pulsanti verdi con una croce nera per ingrandire, il pulsante verde con un trattino per diminuire, o sulla freccia verde per le mappe adiacenti.


METAR-TAF: